Time;durP1;ratioP1;P1;durP2;ratioP2;P2;SDS_P1;SDS_P2;PMS_P1;PMS_P2;Temp;Humidity;BMP_temperature;BMP_pressure;BME280_temperature;BME280_humidity;BME280_pressure;Samples;Min_cycle;Max_cycle;Signal;HPM_P1;HPM_P2
2023/07/31 00:01:10;;;;;;;2.03;1.17;;;;;;;18.50;100.00;100141.56;5020469;28;20061;-57
2023/07/31 00:03:36;;;;;;;6.15;1.30;;;;;;;18.62;100.00;100128.00;5023001;28;20128;-53
2023/07/31 00:06:01;;;;;;;2.00;0.75;;;;;;;18.59;100.00;100120.47;5022782;28;20040;-55
2023/07/31 00:08:27;;;;;;;5.45;1.95;;;;;;;18.59;100.00;100119.66;5021027;28;20479;-66
2023/07/31 00:10:52;;;;;;;0.60;0.30;;;;;;;18.60;100.00;100126.66;5022053;28;20041;-64
2023/07/31 00:13:18;;;;;;;3.70;0.60;;;;;;;18.65;100.00;100124.03;5022174;28;20063;-51
2023/07/31 00:15:44;;;;;;;1.20;0.55;;;;;;;18.62;100.00;100119.16;5020765;28;20033;-49
2023/07/31 00:18:09;;;;;;;4.47;0.70;;;;;;;18.62;100.00;100122.66;5020979;28;20152;-50
2023/07/31 00:20:35;;;;;;;2.80;0.38;;;;;;;18.59;100.00;100125.84;5022274;28;20051;-55
2023/07/31 00:23:00;;;;;;;0.30;0.00;;;;;;;18.57;100.00;100114.53;5015932;28;20411;-62
2023/07/31 00:25:25;;;;;;;1.52;0.15;;;;;;;18.62;100.00;100108.41;5023964;28;20029;-57
2023/07/31 00:27:50;;;;;;;5.05;0.63;;;;;;;18.57;100.00;100100.31;5010166;28;20057;-66
2023/07/31 00:30:16;;;;;;;0.20;0.20;;;;;;;18.64;100.00;100100.91;5023951;28;20044;-66
2023/07/31 00:32:41;;;;;;;0.47;0.05;;;;;;;18.60;100.00;100099.81;5011402;28;20120;-50
2023/07/31 00:35:07;;;;;;;0.85;0.22;;;;;;;18.67;100.00;100103.91;5016687;28;20141;-61
2023/07/31 00:37:32;;;;;;;0.50;0.00;;;;;;;18.68;100.00;100097.47;5019901;28;20065;-52
2023/07/31 00:39:58;;;;;;;1.63;0.00;;;;;;;18.72;100.00;100089.72;5013415;28;20056;-66
2023/07/31 00:42:24;;;;;;;0.38;0.20;;;;;;;18.83;100.00;100077.22;5020783;28;20030;-51
2023/07/31 00:44:49;;;;;;;0.25;0.00;;;;;;;18.82;100.00;100054.94;5018494;28;20080;-65
2023/07/31 00:47:15;;;;;;;0.30;0.10;;;;;;;18.84;100.00;100063.53;5015512;28;20057;-65
2023/07/31 00:49:40;;;;;;;0.40;0.00;;;;;;;18.84;100.00;100060.03;5019922;28;20041;-50
2023/07/31 00:52:06;;;;;;;0.55;0.20;;;;;;;18.83;100.00;100061.09;5021580;28;20029;-65
2023/07/31 00:54:32;;;;;;;1.77;0.05;;;;;;;18.89;100.00;100060.88;5019004;28;20044;-66
2023/07/31 00:56:57;;;;;;;0.47;0.05;;;;;;;18.90;100.00;100057.16;5021771;28;20033;-63
2023/07/31 00:59:23;;;;;;;0.08;0.00;;;;;;;18.81;100.00;100064.03;5021638;28;20036;-65
2023/07/31 01:01:49;;;;;;;2.08;0.00;;;;;;;18.86;100.00;100066.78;5013996;28;20341;-65
2023/07/31 01:04:15;;;;;;;0.03;0.00;;;;;;;18.91;100.00;100052.56;5021828;28;20415;-65
2023/07/31 01:06:48;;;;;;;3.72;0.30;;;;;;;18.82;100.00;100054.09;5021496;28;20083;-65
2023/07/31 01:09:21;;;;;;;0.05;0.00;;;;;;;18.87;100.00;100030.81;5023066;28;20025;-65
2023/07/31 01:11:56;;;;;;;0.63;0.00;;;;;;;18.78;100.00;100037.69;5022043;28;20120;-48
2023/07/31 01:14:21;;;;;;;0.20;0.00;;;;;;;18.80;100.00;100024.81;5012014;28;20021;-65
2023/07/31 01:16:46;;;;;;;0.40;0.00;;;;;;;18.77;100.00;100036.09;5024478;28;20044;-52
2023/07/31 01:19:15;;;;;;;0.20;0.00;;;;;;;18.81;100.00;100041.75;5019701;28;20025;-54
2023/07/31 01:21:58;;;;;;;2.65;0.00;;;;;;;18.90;100.00;100011.47;5017802;28;20183;-65
2023/07/31 01:24:41;;;;;;;4.57;0.20;;;;;;;18.95;100.00;100016.09;5021284;28;20033;-58
2023/07/31 01:27:23;;;;;;;3.50;0.25;;;;;;;18.87;100.00;100008.47;5021785;28;20069;-52
2023/07/31 01:30:22;;;;;;;1.05;0.00;;;;;;;18.98;100.00;100010.19;5017025;28;20044;-62
2023/07/31 01:32:48;;;;;;;0.75;0.00;;;;;;;18.85;100.00;100005.28;5016751;28;20040;-47
2023/07/31 01:35:14;;;;;;;1.00;0.00;;;;;;;18.96;100.00;99996.22;5015868;28;20034;-60
2023/07/31 01:37:39;;;;;;;0.85;0.35;;;;;;;19.02;100.00;99984.41;5013957;28;20056;-62
2023/07/31 01:40:06;;;;;;;0.00;0.00;;;;;;;19.02;100.00;99983.59;5015183;28;20029;-62
2023/07/31 01:42:31;;;;;;;0.10;0.00;;;;;;;19.02;100.00;99986.28;5016174;28;20040;-58
2023/07/31 01:44:56;;;;;;;0.82;0.08;;;;;;;19.04;100.00;99979.59;5018506;28;20041;-47
2023/07/31 01:47:23;;;;;;;0.85;0.38;;;;;;;18.96;100.00;99988.16;5014119;28;20026;-52
2023/07/31 01:49:48;;;;;;;0.10;0.10;;;;;;;19.04;100.00;99979.59;5018652;28;20061;-51
2023/07/31 01:52:13;;;;;;;0.30;0.00;;;;;;;19.04;100.00;99989.53;5015943;28;20123;-57
2023/07/31 01:54:39;;;;;;;0.17;0.00;;;;;;;19.09;100.00;99976.94;5015975;28;20504;-50
2023/07/31 01:57:04;;;;;;;2.90;0.00;;;;;;;19.18;100.00;99974.59;5019230;28;20037;-53
2023/07/31 01:59:30;;;;;;;0.25;0.10;;;;;;;19.06;100.00;99958.66;5023427;28;20038;-53
2023/07/31 02:01:55;;;;;;;5.50;0.20;;;;;;;19.10;100.00;99967.84;5016375;28;20154;-49
2023/07/31 02:04:20;;;;;;;0.47;0.43;;;;;;;19.11;100.00;99972.13;5016718;28;20466;-46
2023/07/31 02:06:46;;;;;;;1.80;0.60;;;;;;;19.07;100.00;99970.22;5014564;28;20029;-45
2023/07/31 02:09:11;;;;;;;1.08;0.20;;;;;;;19.01;100.00;99969.38;5006740;28;20036;-48
2023/07/31 02:11:36;;;;;;;1.10;0.80;;;;;;;19.06;100.00;99974.78;5020978;28;20071;-52
2023/07/31 02:14:02;;;;;;;0.47;0.38;;;;;;;19.08;100.00;99969.97;5016423;28;20033;-59
2023/07/31 02:16:27;;;;;;;2.30;0.30;;;;;;;19.08;100.00;99982.59;5018658;28;20030;-55
2023/07/31 02:18:52;;;;;;;3.13;0.22;;;;;;;19.10;100.00;99965.16;5013100;28;20087;-50
2023/07/31 02:21:17;;;;;;;1.70;0.15;;;;;;;19.11;100.00;99953.31;5015609;28;20454;-62
2023/07/31 02:23:43;;;;;;;1.58;0.03;;;;;;;19.17;100.00;99959.53;5014868;28;20432;-56
2023/07/31 02:26:08;;;;;;;0.52;0.05;;;;;;;19.16;100.00;99957.91;5019888;28;20034;-49
2023/07/31 02:28:34;;;;;;;1.17;0.10;;;;;;;19.16;100.00;99952.53;5019036;28;20029;-53
2023/07/31 02:30:59;;;;;;;0.82;0.05;;;;;;;19.10;100.00;99953.56;5019765;28;20045;-56
2023/07/31 02:33:24;;;;;;;0.30;0.10;;;;;;;19.11;100.00;99936.41;5017650;28;20111;-52
2023/07/31 02:35:49;;;;;;;1.02;0.77;;;;;;;19.10;100.00;99940.13;5021609;28;20494;-54
2023/07/31 02:38:15;;;;;;;1.15;0.30;;;;;;;19.09;100.00;99935.84;5021038;28;20112;-58
2023/07/31 02:40:43;;;;;;;1.38;0.10;;;;;;;19.11;100.00;99936.41;5021565;28;20026;-53
2023/07/31 02:43:09;;;;;;;1.40;0.25;;;;;;;19.20;100.00;99925.94;5020247;28;20386;-50
2023/07/31 02:45:34;;;;;;;1.27;0.55;;;;;;;19.23;100.00;99920.03;5017004;28;20029;-60
2023/07/31 02:47:59;;;;;;;1.95;0.17;;;;;;;19.22;100.00;99927.31;5013217;28;20104;-55
2023/07/31 02:50:25;;;;;;;1.13;0.45;;;;;;;19.27;100.00;99921.94;5018470;28;20442;-55
2023/07/31 02:52:50;;;;;;;0.15;0.10;;;;;;;19.26;100.00;99927.56;5015419;28;20026;-53
2023/07/31 02:55:15;;;;;;;0.70;0.10;;;;;;;19.34;100.00;99933.28;5016683;28;20040;-55
2023/07/31 02:57:41;;;;;;;0.82;0.30;;;;;;;19.39;100.00;99927.13;5016430;28;20494;-49
2023/07/31 03:00:07;;;;;;;0.75;0.15;;;;;;;19.24;100.00;99927.84;5021790;28;20022;-56
2023/07/31 03:02:32;;;;;;;0.68;0.00;;;;;;;19.32;100.00;99932.72;5017490;28;20530;-56
2023/07/31 03:04:58;;;;;;;1.33;0.50;;;;;;;19.38;100.00;99923.59;5011045;28;20378;-52
2023/07/31 03:07:23;;;;;;;1.98;0.95;;;;;;;19.39;100.00;99911.78;5016695;28;20068;-53
2023/07/31 03:09:48;;;;;;;1.15;0.20;;;;;;;19.44;100.00;99907.50;5016604;28;20041;-58
2023/07/31 03:12:13;;;;;;;1.42;0.17;;;;;;;19.44;100.00;99907.50;5018345;28;20505;-60
2023/07/31 03:14:39;;;;;;;1.70;0.20;;;;;;;19.44;100.00;99902.13;5021932;28;20037;-50
2023/07/31 03:17:04;;;;;;;0.10;0.00;;;;;;;19.43;100.00;99895.13;5019732;28;20033;-50
2023/07/31 03:19:31;;;;;;;0.68;0.00;;;;;;;19.44;100.00;99888.69;5018659;28;20044;-56
2023/07/31 03:21:57;;;;;;;0.38;0.10;;;;;;;19.49;100.00;99891.38;5012969;28;20025;-49
2023/07/31 03:24:22;;;;;;;2.28;0.40;;;;;;;19.47;100.00;99886.28;5017807;28;20030;-61
2023/07/31 03:26:47;;;;;;;0.65;0.10;;;;;;;19.52;100.00;99880.91;5012522;28;20449;-56
2023/07/31 03:29:13;;;;;;;2.42;0.00;;;;;;;19.50;100.00;99880.38;5021661;28;20111;-57
2023/07/31 03:31:38;;;;;;;0.93;0.08;;;;;;;19.53;100.00;99887.09;5022722;28;20029;-51
2023/07/31 03:34:03;;;;;;;0.20;0.00;;;;;;;19.54;100.00;99888.72;5038765;28;20029;-60
2023/07/31 03:36:29;;;;;;;0.40;0.13;;;;;;;19.55;100.00;99891.16;5018570;28;20108;-55
2023/07/31 03:38:54;;;;;;;1.10;0.10;;;;;;;19.61;100.00;99878.50;5020367;28;20371;-55
2023/07/31 03:41:20;;;;;;;0.25;0.20;;;;;;;19.65;100.00;99887.69;5022915;28;20485;-66
2023/07/31 03:43:55;;;;;;;0.25;0.03;;;;;;;19.60;100.00;99883.09;5018332;28;20033;-51
2023/07/31 03:46:21;;;;;;;3.20;0.10;;;;;;;19.63;100.00;99884.44;5023968;28;20029;-61
2023/07/31 03:48:47;;;;;;;0.55;0.13;;;;;;;19.68;100.00;99886.38;5016037;28;20030;-50
2023/07/31 03:51:12;;;;;;;0.35;0.22;;;;;;;19.66;100.00;99883.91;5022742;28;20056;-66
2023/07/31 03:53:37;;;;;;;0.73;0.13;;;;;;;19.66;100.00;99886.59;5019824;28;20420;-53
2023/07/31 03:56:03;;;;;;;1.05;0.10;;;;;;;19.64;100.00;99875.28;5022919;28;20115;-51
2023/07/31 03:58:28;;;;;;;1.75;0.35;;;;;;;19.67;100.00;99880.19;5018231;28;20060;-54
2023/07/31 04:00:54;;;;;;;3.13;0.70;;;;;;;19.55;100.00;99879.59;5019491;28;20475;-55
2023/07/31 04:03:19;;;;;;;0.73;0.22;;;;;;;19.59;100.00;99886.88;5023041;28;20025;-50
2023/07/31 04:05:44;;;;;;;0.32;0.00;;;;;;;19.55;100.00;99885.75;5020911;28;20065;-54
2023/07/31 04:08:10;;;;;;;0.15;0.00;;;;;;;19.52;100.00;99877.44;5024096;28;20061;-50
2023/07/31 04:10:35;;;;;;;0.40;0.05;;;;;;;19.50;100.00;99890.31;5023867;28;20471;-54
2023/07/31 04:13:00;;;;;;;0.38;0.28;;;;;;;19.39;100.00;99887.59;5021962;28;20583;-58
2023/07/31 04:15:26;;;;;;;1.17;0.73;;;;;;;19.39;100.00;99876.06;5024007;28;20122;-58
2023/07/31 04:17:51;;;;;;;1.17;0.00;;;;;;;19.43;100.00;99866.38;5014842;28;20348;-63
2023/07/31 04:20:17;;;;;;;0.32;0.10;;;;;;;19.48;100.00;99865.56;5023967;28;20091;-59
2023/07/31 04:22:42;;;;;;;0.40;0.35;;;;;;;19.54;100.00;99859.13;5019324;28;20025;-61
2023/07/31 04:25:07;;;;;;;2.28;0.10;;;;;;;19.50;100.00;99866.13;5019269;28;20191;-54
2023/07/31 04:27:33;;;;;;;0.45;0.22;;;;;;;19.51;100.00;99871.22;5022138;28;20045;-61
2023/07/31 04:29:58;;;;;;;0.55;0.55;;;;;;;19.56;100.00;99875.81;5013036;28;20041;-63
2023/07/31 04:32:23;;;;;;;0.65;0.10;;;;;;;19.59;100.00;99872.59;5016691;28;20037;-63
2023/07/31 04:34:49;;;;;;;0.50;0.43;;;;;;;19.63;100.00;99862.94;5014329;28;20034;-60
2023/07/31 04:37:14;;;;;;;1.08;0.10;;;;;;;19.61;100.00;99860.50;5023756;28;20042;-55
2023/07/31 04:39:40;;;;;;;2.80;0.10;;;;;;;19.64;100.00;99861.03;5020527;28;20030;-62
2023/07/31 04:42:05;;;;;;;1.17;0.20;;;;;;;19.71;100.00;99858.94;5022509;28;20029;-51
2023/07/31 04:44:30;;;;;;;0.65;0.00;;;;;;;19.73;100.00;99860.28;5012166;28;20029;-53
2023/07/31 04:46:56;;;;;;;0.90;0.10;;;;;;;19.80;100.00;99862.69;5023250;28;20103;-57
2023/07/31 04:49:22;;;;;;;2.28;0.08;;;;;;;19.77;100.00;99863.25;5018874;28;20121;-52
2023/07/31 04:51:47;;;;;;;0.30;0.00;;;;;;;19.72;100.00;99860.53;5018657;28;20049;-59
2023/07/31 04:54:14;;;;;;;1.95;0.00;;;;;;;19.74;100.00;99866.47;5021020;28;20538;-58
2023/07/31 04:56:40;;;;;;;0.50;0.00;;;;;;;19.70;100.00;99873.47;5020646;28;20121;-58
2023/07/31 04:59:06;;;;;;;0.20;0.05;;;;;;;19.79;100.00;99869.16;5016687;28;20394;-61
2023/07/31 05:01:31;;;;;;;0.43;0.10;;;;;;;19.75;100.00;99874.28;5021377;28;20065;-61
2023/07/31 05:03:56;;;;;;;0.10;0.00;;;;;;;19.73;100.00;99870.25;5017591;28;20029;-58
2023/07/31 05:06:22;;;;;;;1.00;0.10;;;;;;;19.75;100.00;99878.88;5018764;28;20417;-62
2023/07/31 05:08:47;;;;;;;0.98;0.45;;;;;;;19.75;100.00;99884.25;5023121;28;20042;-61
2023/07/31 05:11:12;;;;;;;0.63;0.10;;;;;;;19.79;100.00;99879.94;5011944;28;20037;-62
2023/07/31 05:13:38;;;;;;;2.40;0.30;;;;;;;19.80;100.00;99887.75;5022211;28;20041;-62
2023/07/31 05:16:03;;;;;;;0.20;0.20;;;;;;;19.81;100.00;99878.59;5021594;28;20037;-61
2023/07/31 05:18:29;;;;;;;0.95;0.00;;;;;;;19.77;100.00;99882.91;5021336;28;20036;-63
2023/07/31 05:20:54;;;;;;;0.57;0.13;;;;;;;19.74;100.00;99888.00;5021904;28;20029;-58
2023/07/31 05:23:19;;;;;;;1.42;0.65;;;;;;;19.73;100.00;99883.69;5018956;28;20033;-61
2023/07/31 05:25:45;;;;;;;0.00;0.00;;;;;;;19.81;100.00;99892.03;5020356;28;20462;-59
2023/07/31 05:28:12;;;;;;;0.55;0.10;;;;;;;19.85;100.00;99888.81;5016387;28;20034;-62
2023/07/31 05:30:37;;;;;;;0.20;0.20;;;;;;;19.84;100.00;99885.31;5020111;28;20037;-60
2023/07/31 05:33:03;;;;;;;1.55;0.63;;;;;;;19.87;100.00;99902.81;5019873;28;20068;-62
2023/07/31 05:35:28;;;;;;;0.10;0.00;;;;;;;19.85;100.00;99896.88;5021215;28;20041;-62
2023/07/31 05:37:53;;;;;;;0.00;0.00;;;;;;;19.94;100.00;99881.84;5018513;28;20514;-62
2023/07/31 05:40:19;;;;;;;0.20;0.00;;;;;;;19.86;100.00;99875.09;4999596;28;20039;-65
2023/07/31 05:42:44;;;;;;;0.95;0.10;;;;;;;19.93;100.00;99877.50;5017426;28;20419;-62
2023/07/31 05:45:10;;;;;;;1.38;0.00;;;;;;;19.85;100.00;99880.75;5021878;28;20037;-59
2023/07/31 05:47:35;;;;;;;0.20;0.00;;;;;;;19.90;100.00;99875.38;5017329;28;20029;-63
2023/07/31 05:50:01;;;;;;;0.47;0.45;;;;;;;19.94;100.00;99868.38;5017471;28;20414;-59
2023/07/31 05:52:26;;;;;;;2.88;0.00;;;;;;;20.14;100.00;99863.03;5020983;28;20038;-55
2023/07/31 05:54:51;;;;;;;0.00;0.00;;;;;;;20.16;100.00;99868.94;5018645;28;20079;-60
2023/07/31 05:57:17;;;;;;;0.65;0.00;;;;;;;20.22;100.00;99867.06;5016101;28;20030;-60
2023/07/31 05:59:42;;;;;;;0.05;0.00;;;;;;;20.20;100.00;99861.13;5016230;28;20041;-60
2023/07/31 06:02:08;;;;;;;0.00;0.00;;;;;;;20.27;100.00;99870.56;5019295;28;20049;-59
2023/07/31 06:04:33;;;;;;;0.10;0.00;;;;;;;20.39;100.00;99875.63;5017012;28;20043;-59
2023/07/31 06:06:58;;;;;;;0.10;0.00;;;;;;;20.44;100.00;99864.06;5016377;28;20103;-59
2023/07/31 06:09:24;;;;;;;0.35;0.00;;;;;;;20.44;100.00;99864.06;5016764;28;20044;-58
2023/07/31 06:11:50;;;;;;;0.00;0.00;;;;;;;20.40;100.00;99871.09;5015011;28;20033;-60
2023/07/31 06:14:15;;;;;;;1.17;0.00;;;;;;;20.37;100.00;99864.34;5013883;28;20485;-60
2023/07/31 06:16:41;;;;;;;0.75;0.05;;;;;;;20.36;100.00;99875.38;5020385;28;20041;-59
2023/07/31 06:19:07;;;;;;;0.15;0.00;;;;;;;20.32;100.00;99877.03;5012154;28;20470;-58
2023/07/31 06:21:32;;;;;;;0.43;0.00;;;;;;;20.26;100.00;99871.63;5022066;28;20446;-60
2023/07/31 06:23:58;;;;;;;0.10;0.00;;;;;;;20.29;100.00;99877.53;5017386;28;20033;-61
2023/07/31 06:26:23;;;;;;;1.55;0.00;;;;;;;20.28;100.00;99882.13;5019133;28;20062;-61
2023/07/31 06:28:48;;;;;;;1.48;0.10;;;;;;;20.08;100.00;99877.53;5010070;28;20060;-58
2023/07/31 06:31:14;;;;;;;0.55;0.20;;;;;;;19.75;100.00;99874.28;5013037;28;20239;-56
2023/07/31 06:33:39;;;;;;;0.52;0.47;;;;;;;19.80;100.00;99871.59;5016357;28;20045;-67
2023/07/31 06:36:05;;;;;;;0.55;0.00;;;;;;;19.86;100.00;99868.94;5014374;28;20049;-65
2023/07/31 06:38:30;;;;;;;0.45;0.00;;;;;;;19.96;100.00;99861.66;5011454;28;20143;-67
2023/07/31 06:40:55;;;;;;;4.82;0.22;;;;;;;19.98;100.00;99867.59;5021801;28;20029;-66
2023/07/31 06:43:21;;;;;;;0.43;0.00;;;;;;;20.00;100.00;99864.63;5017296;28;20048;-61
2023/07/31 06:45:48;;;;;;;2.50;0.25;;;;;;;19.91;100.00;99871.63;5018991;28;20506;-62
2023/07/31 06:48:13;;;;;;;2.58;0.68;;;;;;;19.91;100.00;99867.03;5014937;28;20502;-64
2023/07/31 06:50:39;;;;;;;1.30;0.10;;;;;;;19.90;100.00;99853.84;5019997;28;20033;-66
2023/07/31 06:53:04;;;;;;;1.10;0.32;;;;;;;19.86;100.00;99853.59;5019329;28;20033;-65
2023/07/31 06:55:30;;;;;;;1.73;0.30;;;;;;;19.82;100.00;99847.91;5016512;28;20048;-66
2023/07/31 06:57:55;;;;;;;2.33;0.10;;;;;;;19.87;100.00;99844.44;5013416;28;20109;-65
2023/07/31 07:00:23;;;;;;;1.45;0.70;;;;;;;19.88;100.00;99842.53;5019076;28;20026;-65
2023/07/31 07:02:48;;;;;;;3.70;0.13;;;;;;;20.00;100.00;99829.63;5019280;28;20038;-64
2023/07/31 07:05:15;;;;;;;3.05;0.20;;;;;;;20.01;100.00;99840.16;5018179;28;20543;-66
2023/07/31 07:07:41;;;;;;;1.27;0.05;;;;;;;20.04;100.00;99838.81;5013838;28;20029;-66
2023/07/31 07:10:07;;;;;;;0.52;0.20;;;;;;;20.14;100.00;99832.63;5012502;28;20029;-66
2023/07/31 07:12:33;;;;;;;1.00;0.20;;;;;;;20.19;100.00;99838.78;5020569;28;20103;-66
2023/07/31 07:14:59;;;;;;;1.33;0.25;;;;;;;20.24;100.00;99832.59;5021192;28;20040;-66
2023/07/31 07:17:25;;;;;;;0.47;0.20;;;;;;;20.27;100.00;99827.47;5024214;28;20035;-66
2023/07/31 07:19:50;;;;;;;7.97;1.27;;;;;;;20.28;100.00;99836.34;5019190;28;20033;-66
2023/07/31 07:22:16;;;;;;;2.17;0.20;;;;;;;20.33;100.00;99820.19;5023256;28;20397;-66
2023/07/31 07:24:41;;;;;;;2.80;0.82;;;;;;;20.39;100.00;99821.00;5021464;28;20083;-66
2023/07/31 07:27:07;;;;;;;1.23;0.17;;;;;;;20.42;100.00;99823.97;5020234;28;20053;-66
2023/07/31 07:29:34;;;;;;;3.35;0.05;;;;;;;20.49;100.00;99837.13;5021225;28;20042;-66
2023/07/31 07:31:59;;;;;;;1.25;0.20;;;;;;;20.52;100.00;99835.78;5016638;28;20021;-65
2023/07/31 07:34:28;;;;;;;5.18;0.25;;;;;;;20.54;100.00;99841.72;5024479;28;20087;-65
2023/07/31 07:36:54;;;;;;;3.47;0.35;;;;;;;20.65;100.00;99837.94;5019925;28;20488;-67
2023/07/31 07:39:20;;;;;;;0.43;0.17;;;;;;;20.71;100.00;99830.66;5007667;28;20125;-66
2023/07/31 07:41:46;;;;;;;0.80;0.30;;;;;;;20.82;100.00;99826.84;5020632;28;20116;-66
2023/07/31 07:44:12;;;;;;;0.40;0.30;;;;;;;20.92;100.00;99824.91;5017726;28;20030;-67
2023/07/31 07:46:37;;;;;;;2.15;0.38;;;;;;;21.06;100.00;99810.84;5019777;28;20483;-61
2023/07/31 07:49:02;;;;;;;0.43;0.38;;;;;;;21.21;100.00;99802.69;5016878;28;20034;-66
2023/07/31 07:51:30;;;;;;;0.77;0.50;;;;;;;21.41;100.00;99801.81;5021364;28;20076;-50
2023/07/31 07:53:55;;;;;;;0.70;0.35;;;;;;;21.34;100.00;99783.19;5024140;28;20045;-65
2023/07/31 07:56:21;;;;;;;0.32;0.30;;;;;;;21.35;100.00;99782.13;5008766;28;20036;-67
2023/07/31 07:58:49;;;;;;;0.25;0.13;;;;;;;21.52;100.00;99789.84;5016819;28;20030;-65
2023/07/31 08:01:14;;;;;;;4.00;1.40;;;;;;;21.53;100.00;99794.19;5014160;28;20052;-66
2023/07/31 08:03:39;;;;;;;1.27;0.80;;;;;;;21.29;100.00;99804.00;5013720;28;20037;-65
2023/07/31 08:06:05;;;;;;;2.42;0.43;;;;;;;21.28;100.00;99799.69;5022135;28;20096;-57
2023/07/31 08:08:30;;;;;;;0.38;0.38;;;;;;;21.42;100.00;99768.34;5022560;28;20556;-64
2023/07/31 08:10:55;;;;;;;2.10;0.60;;;;;;;21.74;100.00;99770.56;5021023;28;20212;-65
2023/07/31 08:13:21;;;;;;;1.25;0.28;;;;;;;21.80;100.00;99759.72;5022799;28;20855;-55
2023/07/31 08:15:46;;;;;;;1.02;0.57;;;;;;;21.69;100.00;99757.09;5013642;28;20432;-61
2023/07/31 08:18:11;;;;;;;1.75;1.35;;;;;;;21.65;100.00;99763.34;5023175;28;20044;-58
2023/07/31 08:20:37;;;;;;;0.10;0.10;;;;;;;21.75;100.00;99764.06;5018479;28;20030;-64
2023/07/31 08:23:03;;;;;;;2.83;0.63;;;;;;;21.76;100.00;99748.66;5023869;28;20029;-55
2023/07/31 08:25:29;;;;;;;1.85;0.35;;;;;;;21.97;100.00;99747.41;5019671;28;20037;-61
2023/07/31 08:27:55;;;;;;;1.65;0.17;;;;;;;22.05;100.00;99735.19;5015681;28;20486;-65
2023/07/31 08:30:20;;;;;;;1.67;0.22;;;;;;;22.13;100.00;99734.56;5019264;28;20037;-63
2023/07/31 08:32:46;;;;;;;1.55;0.73;;;;;;;21.95;100.00;99729.91;5003297;28;20052;-67
2023/07/31 08:35:11;;;;;;;0.30;0.20;;;;;;;21.90;100.00;99740.75;5008333;28;20132;-68
2023/07/31 08:37:38;;;;;;;1.90;0.00;;;;;;;21.83;100.00;99742.97;5020294;28;20029;-67
2023/07/31 08:40:04;;;;;;;2.78;0.32;;;;;;;21.82;100.00;99744.06;5019153;28;20040;-63
2023/07/31 08:42:29;;;;;;;2.10;0.10;;;;;;;21.64;100.00;99740.16;5020290;28;20099;-67
2023/07/31 08:44:56;;;;;;;1.33;0.75;;;;;;;21.53;100.00;99751.03;5019562;28;20049;-66
2023/07/31 08:47:22;;;;;;;0.95;0.10;;;;;;;21.47;100.00;99743.25;5020881;28;20475;-61
2023/07/31 08:49:49;;;;;;;0.65;0.20;;;;;;;21.29;100.00;99750.06;5021899;28;20045;-58
2023/07/31 08:52:14;;;;;;;0.60;0.38;;;;;;;21.27;100.00;99765.72;5023815;28;20474;-55
2023/07/31 08:54:40;;;;;;;1.60;0.10;;;;;;;21.33;100.00;99762.72;5012902;28;20038;-54
2023/07/31 08:57:06;;;;;;;1.10;0.35;;;;;;;21.04;100.00;99759.94;5020136;28;20032;-62
2023/07/31 08:59:35;;;;;;;1.00;0.50;;;;;;;20.93;100.00;99771.84;5015063;28;20038;-62
2023/07/31 09:02:07;;;;;;;3.13;0.70;;;;;;;20.91;100.00;99784.81;5008971;28;20078;-63
2023/07/31 09:04:33;;;;;;;0.00;0.00;;;;;;;20.95;100.00;99783.16;5014440;28;20537;-62
2023/07/31 09:07:04;;;;;;;4.38;1.20;;;;;;;20.78;100.00;99770.03;5020966;28;20022;-64
2023/07/31 09:09:30;;;;;;;0.40;0.10;;;;;;;20.79;100.00;99765.44;5016034;28;20403;-59
2023/07/31 09:11:57;;;;;;;0.40;0.40;;;;;;;20.88;100.00;99753.00;5019810;28;20041;-58
2023/07/31 09:14:25;;;;;;;0.90;0.10;;;;;;;21.08;100.00;99744.00;5016779;28;20036;-62
2023/07/31 09:16:59;;;;;;;0.90;0.30;;;;;;;21.28;100.00;99729.59;5009855;28;20075;-59
2023/07/31 09:19:30;;;;;;;0.30;0.00;;;;;;;21.23;100.00;99710.75;5013731;28;20439;-58
2023/07/31 09:21:55;;;;;;;3.28;1.23;;;;;;;21.25;100.00;99711.31;5018294;28;20086;-63
2023/07/31 09:24:31;;;;;;;0.85;0.65;;;;;;;21.25;100.00;99703.22;5013459;28;20045;-62
2023/07/31 09:26:58;;;;;;;0.28;0.20;;;;;;;21.33;100.00;99722.28;5015652;28;20065;-64
2023/07/31 09:29:26;;;;;;;1.95;0.20;;;;;;;21.28;100.00;99718.81;5018409;28;20558;-62
2023/07/31 09:31:52;;;;;;;0.68;0.22;;;;;;;21.43;100.00;99693.66;5020818;28;20044;-64
2023/07/31 09:34:17;;;;;;;0.43;0.10;;;;;;;21.47;100.00;99684.72;5022432;28;20044;-62
2023/07/31 09:36:48;;;;;;;0.52;0.00;;;;;;;21.36;100.00;99693.94;5011806;28;20046;-64
2023/07/31 09:39:19;;;;;;;0.00;0.00;;;;;;;21.29;100.00;99705.03;5019926;28;20029;-62
2023/07/31 09:41:53;;;;;;;0.65;0.08;;;;;;;21.08;100.00;99728.63;5017037;28;20053;-58
2023/07/31 09:44:18;;;;;;;1.30;0.40;;;;;;;21.08;100.00;99754.78;5021998;28;20047;-67
2023/07/31 09:46:43;;;;;;;0.40;0.10;;;;;;;21.09;100.00;99757.22;5019620;28;20025;-64
2023/07/31 09:49:10;;;;;;;1.65;0.30;;;;;;;21.20;100.00;99731.00;5019431;28;20071;-68
2023/07/31 09:51:40;;;;;;;0.73;0.35;;;;;;;21.49;100.00;99733.78;5011060;28;20038;-65
2023/07/31 09:54:13;;;;;;;0.50;0.10;;;;;;;21.72;100.00;99726.84;5020471;28;20493;-67
2023/07/31 09:56:48;;;;;;;0.77;0.25;;;;;;;21.97;100.00;99712.34;5019047;28;20069;-55
2023/07/31 09:59:18;;;;;;;0.82;0.20;;;;;;;21.98;100.00;99713.94;5035166;28;20029;-61
2023/07/31 10:01:46;;;;;;;0.20;0.20;;;;;;;22.09;100.00;99703.03;5015158;28;20037;-52
2023/07/31 10:04:12;;;;;;;0.60;0.25;;;;;;;22.04;100.00;99713.88;5015203;28;20033;-63
2023/07/31 10:06:39;;;;;;;0.32;0.03;;;;;;;22.06;100.00;99717.91;5022773;28;20092;-49
2023/07/31 10:09:06;;;;;;;0.75;0.00;;;;;;;22.06;100.00;99736.00;5021517;28;20029;-61
2023/07/31 10:11:55;;;;;;;2.90;0.38;;;;;;;22.09;100.00;99733.53;5016859;28;20042;-62
2023/07/31 10:14:23;;;;;;;0.65;0.10;;;;;;;22.33;100.00;99714.69;5012151;28;20558;-62
2023/07/31 10:16:49;;;;;;;0.32;0.32;;;;;;;22.30;100.00;99700.94;5015930;28;20030;-63
2023/07/31 10:19:14;;;;;;;0.52;0.30;;;;;;;22.28;100.00;99690.44;5017279;28;20034;-62
2023/07/31 10:21:42;;;;;;;1.10;0.40;;;;;;;22.42;100.00;99674.34;5016542;28;20469;-63
2023/07/31 10:24:09;;;;;;;1.05;0.20;;;;;;;22.63;100.00;99683.78;5016882;28;20037;-63
2023/07/31 10:26:35;;;;;;;0.68;0.10;;;;;;;22.77;100.00;99686.59;5015986;28;20063;-62
2023/07/31 10:29:01;;;;;;;1.80;0.10;;;;;;;22.65;100.00;99694.31;5007285;28;20029;-61
2023/07/31 10:31:28;;;;;;;0.40;0.30;;;;;;;22.53;100.00;99715.53;5012934;28;20105;-62
2023/07/31 10:33:55;;;;;;;0.70;0.30;;;;;;;22.11;100.00;99727.84;5013074;28;20165;-64
2023/07/31 10:36:21;;;;;;;2.35;0.40;;;;;;;22.00;100.00;99727.94;5015705;28;20026;-64
2023/07/31 10:38:50;;;;;;;1.75;0.10;;;;;;;22.03;100.00;99717.69;5020667;28;20029;-61
2023/07/31 10:41:16;;;;;;;0.30;0.00;;;;;;;22.26;100.00;99710.72;5016830;28;20029;-60
2023/07/31 10:43:41;;;;;;;0.05;0.00;;;;;;;22.07;100.00;99699.81;5021734;28;20048;-59
2023/07/31 10:46:14;;;;;;;0.47;0.10;;;;;;;21.98;100.00;99711.22;5020378;28;20371;-61
2023/07/31 10:48:44;;;;;;;2.47;0.95;;;;;;;22.16;100.00;99704.28;5011958;28;20061;-63
2023/07/31 10:51:11;;;;;;;11.75;1.20;;;;;;;22.43;100.00;99700.25;5016099;28;20038;-60
2023/07/31 10:53:38;;;;;;;1.08;0.30;;;;;;;22.56;100.00;99696.03;5017249;28;20067;-53
2023/07/31 10:56:05;;;;;;;0.93;0.63;;;;;;;22.60;100.00;99694.38;5014904;28;20116;-59
2023/07/31 10:58:32;;;;;;;0.63;0.40;;;;;;;22.59;100.00;99693.56;5014287;28;20041;-57
2023/07/31 11:01:03;;;;;;;2.35;0.50;;;;;;;22.47;100.00;99692.38;5018247;28;20483;-61
2023/07/31 11:03:44;;;;;;;0.52;0.22;;;;;;;22.23;100.00;99698.59;5018171;28;20546;-61
2023/07/31 11:06:10;;;;;;;1.50;0.38;;;;;;;22.40;100.00;99700.81;5011806;28;20128;-68
2023/07/31 11:08:42;;;;;;;1.38;0.80;;;;;;;22.20;100.00;99699.97;5010771;28;20116;-66
2023/07/31 11:11:09;;;;;;;1.65;0.32;;;;;;;22.24;100.00;99711.00;5019449;28;20034;-68
2023/07/31 11:13:54;;;;;;;3.92;0.70;;;;;;;21.98;100.00;99694.25;5015908;28;20350;-64
2023/07/31 11:16:22;;;;;;;0.82;0.35;;;;;;;22.13;100.00;99694.09;5014903;28;20033;-66
2023/07/31 11:18:49;;;;;;;1.23;0.63;;;;;;;22.32;100.00;99686.06;5017234;28;20371;-52
2023/07/31 11:21:15;;;;;;;2.15;0.45;;;;;;;22.50;100.00;99687.19;5017231;28;20033;-54